Canton, SD (57013)

9:01 PM CST on December 20, 2014 (GMT -0600)
Campingfarmer | Change Station
CLOSE
Current Station
Personal Weather Station
Location: Rock Valley, IA
Elevation: 1253 ft
Nearby Weather Stations

Elev 1253 ft 43.19 °N, 96.39 °W | Updated 0 second ago

Overcast
Overcast
31.5 °F
Feels Like 21 °F
N
15.9
Wind Variable Wind from South
Gusts 15.9 mph

Today
High -- | Low -- °F
--% Chance of Precip.
Yesterday
High -- | Low -- °F
Precip. -- in
7:54 AM 4:53 PM
Waning Crescent, 1% visible
Pressure 30.03 in
Visibility 1.5 miles
Clouds Overcast 200 ft
Windchill 21 °F
Dew Point 27 °F
Humidity 83%
Rainfall 0.00 in
Snow Depth Not available.
UV 0 out of 12
Pollen .10 out of 12
Air Quality Not available.
Flu Activity Not available.
METAR KFSD 210256Z 16010KT 1 1/2SM BR OVC002 M01/M02 A2998 RMK AO2 TWR VIS 1 3/4 SLP169 I1000 I3000 T10111017 56013

More Conditions Fewer Conditions

Pressure 30.03 in
Visibility 1.5 miles
Clouds Overcast 200 ft
Windchill 21 °F
Dew Point 27 °F
Humidity 83%
Rainfall 0.00 in
Snow Depth Not available.
UV 0 out of 12
Pollen .10 out of 12
Air Quality Not available.
Flu Activity Not available.
METAR KFSD 210256Z 16010KT 1 1/2SM BR OVC002 M01/M02 A2998 RMK AO2 TWR VIS 1 3/4 SLP169 I1000 I3000 T10111017 56013

More Conditions Fewer Conditions

10-Day Weather Forecast

Almanac

Astronomy

Dec. 20, 2014 Rise Set
Actual Time
Civil Twilight
Nautical Twilight
Astronomical Twilight
Moon
Length of Visible Light
Length of Day
Tomorrow will be .
, % of the Moon is Illuminated

Today's Extremes

State Highs State Lows

Community

WunderPhotos

Upload Photos

1,779,348 photos uploaded!

WunderBlogs® & News

Nearby

Air Quality

  Air Quality AQ Index Pollutant
Not available.

Snow Depth

Station Depth Elevation

Earthquake Activity

City Distance Mag. Time & Date
Minimum magnitude displayed is 2.5.

Coastal Water Temperatures

Place Temperature

Nearby Weather Stations